createdAt,value
2023-02-22T12:43:48.888Z,4.13
2023-02-22T12:46:40.449Z,5.20
2023-02-22T12:49:34.766Z,1.25
2023-02-22T12:52:34.126Z,3.00
2023-02-22T12:55:25.323Z,2.45
2023-02-22T12:58:25.239Z,1.23
2023-02-22T13:01:20.500Z,1.35
2023-02-22T13:04:20.231Z,4.68
2023-02-22T13:07:20.258Z,4.10
2023-02-22T13:10:28.098Z,1.38
2023-02-22T13:13:21.753Z,2.67
2023-02-22T13:16:23.689Z,4.93
2023-02-22T13:19:32.419Z,1.38
2023-02-22T13:22:25.485Z,6.13
2023-02-22T13:25:18.131Z,0.98
2023-02-22T13:28:22.470Z,1.27
2023-02-22T13:31:35.955Z,3.42
2023-02-22T13:34:45.116Z,1.58
2023-02-22T13:37:51.698Z,2.47
2023-02-22T13:41:02.414Z,4.32
2023-02-22T13:44:07.393Z,1.50
2023-02-22T13:47:21.168Z,1.30
2023-02-22T13:53:11.358Z,2.75
2023-02-22T13:56:02.511Z,1.10
2023-02-22T13:58:54.033Z,0.70
2023-02-22T14:01:46.111Z,1.33
2023-02-22T14:04:40.523Z,2.95
2023-02-22T14:07:48.511Z,4.25
2023-02-22T14:10:41.068Z,2.90
2023-02-22T14:13:30.182Z,0.90
2023-02-22T14:16:22.078Z,2.63
2023-02-22T14:19:18.531Z,1.17
2023-02-22T14:22:13.159Z,1.73
2023-02-22T14:25:00.789Z,3.70
2023-02-22T14:27:48.612Z,3.25
2023-02-22T14:30:38.335Z,3.13
2023-02-22T14:33:55.962Z,7.63
2023-02-22T14:36:48.866Z,9.15
2023-02-22T14:39:41.258Z,7.50
2023-02-22T14:42:34.871Z,9.13
2023-02-22T14:45:29.911Z,5.95
2023-02-22T14:48:26.537Z,5.80
2023-02-22T14:51:22.327Z,6.18
2023-02-22T14:54:20.940Z,7.47
2023-02-22T14:57:22.011Z,4.50
2023-02-22T15:00:31.194Z,8.90
2023-02-22T15:03:32.935Z,5.57
2023-02-22T15:06:26.200Z,6.05
2023-02-22T15:09:26.375Z,6.30
2023-02-22T15:12:30.601Z,8.48
2023-02-22T15:15:22.422Z,6.10
2023-02-22T15:18:21.288Z,10.30
2023-02-22T15:21:13.429Z,5.60
2023-02-22T15:24:02.856Z,9.80
2023-02-22T15:27:01.355Z,6.07
2023-02-22T15:29:51.647Z,8.60
2023-02-22T15:32:57.016Z,8.30
2023-02-22T15:35:56.434Z,9.43
2023-02-22T15:38:51.669Z,5.78
2023-02-22T15:41:40.166Z,8.40
2023-02-22T15:44:28.971Z,14.80
2023-02-22T15:47:21.108Z,10.70
2023-02-22T15:50:18.832Z,9.20
2023-02-22T15:53:09.378Z,6.32
2023-02-22T15:55:59.581Z,6.97
2023-02-22T15:58:49.212Z,9.57
2023-02-22T16:01:42.373Z,6.30
2023-02-22T16:04:33.209Z,10.02
2023-02-22T16:07:21.714Z,10.32
2023-02-22T16:10:09.571Z,5.43
2023-02-22T16:13:31.140Z,8.50
2023-02-22T16:16:27.572Z,6.90
2023-02-22T16:19:28.148Z,11.13
2023-02-22T16:22:33.799Z,6.32
2023-02-22T16:25:35.794Z,4.63
2023-02-22T16:28:30.795Z,6.93
2023-02-22T16:31:21.456Z,6.22
2023-02-22T16:34:11.009Z,8.73
2023-02-22T16:36:59.157Z,5.47
2023-02-22T16:39:47.607Z,6.63
2023-02-22T16:42:34.848Z,7.00
2023-02-22T16:45:23.440Z,12.18
2023-02-22T16:48:16.566Z,7.50
2023-02-22T16:51:11.069Z,11.18
2023-02-22T16:53:59.149Z,10.75
2023-02-22T16:56:47.927Z,10.65
2023-02-22T16:59:40.365Z,12.98
2023-02-22T17:02:28.852Z,10.02
2023-02-22T17:05:18.174Z,19.05
2023-02-22T17:08:07.403Z,10.40
2023-02-22T17:10:57.156Z,11.98
2023-02-22T17:13:47.486Z,14.73
2023-02-22T17:16:34.835Z,25.85
2023-02-22T17:19:24.653Z,9.68
2023-02-22T17:22:19.155Z,12.10
2023-02-22T17:25:21.435Z,10.15
2023-02-22T17:28:10.164Z,14.70
2023-02-22T17:31:02.331Z,17.45
2023-02-22T17:33:51.738Z,13.85
2023-02-22T17:36:40.063Z,11.50
2023-02-22T17:39:28.854Z,7.38
2023-02-22T17:42:16.790Z,17.25
2023-02-22T17:45:04.613Z,16.30
2023-02-22T17:47:55.400Z,20.63
2023-02-22T17:50:44.926Z,13.60
2023-02-22T17:53:33.315Z,17.63
2023-02-22T17:56:21.597Z,15.23
2023-02-22T17:59:09.807Z,18.08
2023-02-22T18:01:57.433Z,13.23
2023-02-22T18:04:47.033Z,21.67
2023-02-22T18:07:34.971Z,19.85
2023-02-22T18:10:22.886Z,21.25
2023-02-22T18:13:11.392Z,14.25
2023-02-22T18:16:01.031Z,16.95
2023-02-22T18:18:49.791Z,14.25
2023-02-22T18:21:38.922Z,16.63
2023-02-22T18:24:26.356Z,18.30
2023-02-22T18:27:15.216Z,20.27
2023-02-22T18:30:02.718Z,18.15
2023-02-22T18:32:50.680Z,17.05
2023-02-22T18:35:39.027Z,22.38
2023-02-22T18:38:28.377Z,15.20
2023-02-22T18:41:18.231Z,24.45
2023-02-22T18:44:06.693Z,22.27
2023-02-22T18:46:55.001Z,24.13
2023-02-22T18:49:42.544Z,34.65
2023-02-22T18:52:31.876Z,32.50
2023-02-22T18:55:21.992Z,29.58
2023-02-22T18:58:11.324Z,33.67
2023-02-22T19:01:01.630Z,30.90
2023-02-22T19:03:52.905Z,23.30
2023-02-22T19:06:43.364Z,26.38
2023-02-22T19:09:35.433Z,23.90
2023-02-22T19:12:28.247Z,25.52
2023-02-22T19:15:15.908Z,30.85
2023-02-22T19:18:03.510Z,19.73
2023-02-22T19:21:00.269Z,23.20
2023-02-22T19:23:48.912Z,20.42
2023-02-22T19:26:39.650Z,19.10
2023-02-22T19:29:31.239Z,17.58
2023-02-22T19:32:18.592Z,20.05
2023-02-22T19:35:07.047Z,24.40
2023-02-22T19:37:55.679Z,16.10
2023-02-22T19:40:42.795Z,20.13
2023-02-22T19:43:30.097Z,17.73
2023-02-22T19:46:19.181Z,17.10
2023-02-22T19:49:07.176Z,17.98
2023-02-22T19:51:54.302Z,16.90
2023-02-22T19:54:42.073Z,21.15
2023-02-22T19:57:30.173Z,17.63
2023-02-22T20:00:24.720Z,22.90
2023-02-22T20:03:16.150Z,21.45
2023-02-22T20:06:03.897Z,20.20
2023-02-22T20:08:51.536Z,19.40
2023-02-22T20:11:39.177Z,21.05
2023-02-22T20:14:28.831Z,24.42
2023-02-22T20:17:16.829Z,18.73
2023-02-22T20:20:07.067Z,18.13
2023-02-22T20:22:54.628Z,16.60
2023-02-22T20:25:42.783Z,17.67
2023-02-22T20:28:31.075Z,17.73
2023-02-22T20:31:19.622Z,19.52
2023-02-22T20:34:08.082Z,20.98
2023-02-22T20:36:58.302Z,19.75
2023-02-22T20:39:48.129Z,22.30
2023-02-22T20:42:35.904Z,20.63
2023-02-22T20:45:23.688Z,20.90
2023-02-22T20:48:12.652Z,22.52
2023-02-22T20:51:06.861Z,20.48
2023-02-22T20:53:56.552Z,21.10
2023-02-22T20:56:45.045Z,17.92
2023-02-22T20:59:35.826Z,23.63
2023-02-22T21:02:23.625Z,21.23
2023-02-22T21:05:11.508Z,22.27
2023-02-22T21:08:01.047Z,19.63
2023-02-22T21:10:50.076Z,19.95
2023-02-22T21:13:37.442Z,17.20
2023-02-22T21:16:33.511Z,18.58
2023-02-22T21:19:25.847Z,18.63
2023-02-22T21:22:14.478Z,26.33
2023-02-22T21:25:02.762Z,18.63
2023-02-22T21:27:51.738Z,19.85
2023-02-22T21:30:42.396Z,19.38
2023-02-22T21:33:31.774Z,16.52
2023-02-22T21:36:25.669Z,19.90
2023-02-22T21:39:19.449Z,20.52
2023-02-22T21:42:08.438Z,23.65
2023-02-22T21:44:59.177Z,21.65
2023-02-22T21:47:47.535Z,21.33
2023-02-22T21:50:37.875Z,22.25
2023-02-22T21:53:27.357Z,20.60
2023-02-22T21:56:19.644Z,21.88
2023-02-22T21:59:13.715Z,19.67
2023-02-22T22:02:02.703Z,20.88
2023-02-22T22:04:50.820Z,18.80
2023-02-22T22:07:38.358Z,22.63
2023-02-22T22:10:28.380Z,22.50
2023-02-22T22:13:16.008Z,19.00
2023-02-22T22:16:06.597Z,26.00
2023-02-22T22:18:55.743Z,22.23
2023-02-22T22:21:45.076Z,22.83
2023-02-22T22:24:34.610Z,22.23
2023-02-22T22:27:22.623Z,22.70
2023-02-22T22:30:13.159Z,20.60
2023-02-22T22:33:00.665Z,20.73
2023-02-22T22:35:49.616Z,23.35
2023-02-22T22:38:39.035Z,21.17
2023-02-22T22:41:29.276Z,21.45
2023-02-22T22:44:25.073Z,20.58
2023-02-22T22:47:14.133Z,22.50
2023-02-22T22:50:01.735Z,21.85
2023-02-22T22:52:51.927Z,24.67
2023-02-22T22:55:45.025Z,24.83
2023-02-22T22:58:34.374Z,26.60
2023-02-22T23:01:27.526Z,24.15
2023-02-22T23:04:17.890Z,25.42
2023-02-22T23:07:07.406Z,26.77
2023-02-22T23:09:57.192Z,27.60
2023-02-22T23:12:44.657Z,24.67
2023-02-22T23:15:32.060Z,25.35
2023-02-22T23:18:20.702Z,22.75
2023-02-22T23:21:08.440Z,25.30
2023-02-22T23:23:58.969Z,22.02
2023-02-22T23:26:51.007Z,24.90
2023-02-22T23:29:40.373Z,22.38
2023-02-22T23:32:31.083Z,24.75
2023-02-22T23:35:21.184Z,25.35
2023-02-22T23:38:11.149Z,25.40
2023-02-22T23:41:04.515Z,22.60
2023-02-22T23:43:54.206Z,25.25
2023-02-22T23:46:41.927Z,23.52
2023-02-22T23:49:36.114Z,23.23
2023-02-22T23:52:30.099Z,25.52
2023-02-22T23:55:20.939Z,26.60
2023-02-22T23:58:08.885Z,26.13
